createdAt,value
2023-04-10T00:01:53.099Z,4.28
2023-04-10T00:04:54.728Z,4.45
2023-04-10T00:07:56.344Z,4.38
2023-04-10T00:10:57.842Z,4.43
2023-04-10T00:13:59.453Z,4.32
2023-04-10T00:17:01.006Z,4.60
2023-04-10T00:20:03.985Z,5.85
2023-04-10T00:23:06.197Z,6.50
2023-04-10T00:26:08.047Z,6.85
2023-04-10T00:29:09.548Z,7.88
2023-04-10T00:32:11.028Z,7.50
2023-04-10T00:35:12.712Z,6.80
2023-04-10T00:38:15.192Z,6.68
2023-04-10T00:41:16.866Z,7.22
2023-04-10T00:44:18.522Z,6.88
2023-04-10T00:47:20.114Z,7.15
2023-04-10T00:50:22.411Z,6.80
2023-04-10T00:53:23.956Z,7.43
2023-04-10T13:58:46.913Z,4.47
2023-04-10T14:01:50.888Z,5.30
2023-04-10T14:04:52.437Z,5.13
2023-04-10T14:07:56.908Z,5.00
2023-04-10T14:10:58.414Z,5.10
2023-04-10T14:13:59.932Z,4.97
2023-04-10T14:17:01.412Z,4.50
2023-04-10T14:20:03.029Z,5.07
2023-04-10T14:23:05.401Z,5.07
2023-04-10T14:26:07.028Z,5.15
2023-04-10T14:29:09.026Z,4.50
2023-04-10T14:32:10.538Z,4.85
2023-04-10T14:35:12.147Z,4.50
2023-04-10T14:38:13.936Z,5.05
2023-04-10T14:41:16.069Z,4.35
2023-04-10T14:44:18.066Z,4.43
2023-04-10T14:47:19.544Z,4.43
2023-04-10T14:50:21.089Z,4.90
2023-04-10T14:53:23.081Z,4.50
2023-04-10T14:56:24.685Z,4.75
2023-04-10T14:59:26.261Z,4.53
2023-04-10T15:02:28.181Z,4.28
2023-04-10T15:05:29.877Z,4.28
2023-04-10T15:08:31.654Z,4.30
2023-04-10T15:11:33.173Z,4.25
2023-04-10T15:14:34.649Z,4.30
2023-04-10T15:17:36.211Z,4.30
2023-04-10T15:20:38.885Z,4.75
2023-04-10T15:23:40.362Z,4.75
2023-04-10T15:26:45.960Z,4.93
2023-04-10T15:29:48.223Z,4.70
2023-04-10T15:32:49.776Z,4.43
2023-04-10T15:35:51.329Z,4.10
2023-04-10T15:38:52.810Z,4.43
2023-04-10T15:41:54.320Z,4.20
2023-04-10T15:44:55.792Z,4.20
2023-04-10T15:48:00.938Z,4.15
2023-04-10T15:51:07.151Z,3.95
2023-04-10T15:54:09.129Z,3.95
2023-04-10T15:57:10.711Z,3.80
2023-04-10T16:00:13.348Z,4.07
2023-04-10T16:03:14.972Z,4.25
2023-04-10T16:06:16.586Z,3.80
2023-04-10T16:12:22.705Z,3.88
2023-04-10T16:15:24.255Z,4.00
2023-04-10T16:18:25.815Z,3.78
2023-04-10T16:21:27.337Z,3.80
2023-04-10T16:24:28.856Z,3.88
2023-04-10T16:27:30.323Z,3.90
2023-04-10T16:30:31.865Z,3.70
2023-04-10T16:33:33.483Z,3.65
2023-04-10T16:36:37.927Z,3.90
2023-04-10T16:39:39.457Z,3.65
2023-04-10T16:42:42.657Z,3.85
2023-04-10T16:45:44.516Z,4.15
2023-04-10T16:48:46.045Z,3.80
2023-04-10T16:51:47.725Z,3.88
2023-04-10T16:54:49.194Z,3.95
2023-04-10T16:57:50.798Z,3.25
2023-04-10T17:00:52.312Z,3.97
2023-04-10T17:03:54.512Z,4.22
2023-04-10T17:06:56.145Z,3.30
2023-04-10T17:09:57.629Z,3.63
2023-04-10T17:12:59.105Z,3.28
2023-04-10T17:16:00.612Z,3.50
2023-04-10T17:19:02.593Z,3.63
2023-04-10T17:22:04.089Z,3.85
2023-04-10T17:25:06.076Z,3.88
2023-04-10T17:28:08.313Z,3.40
2023-04-10T17:31:09.784Z,3.80
2023-04-10T17:34:11.258Z,3.42
2023-04-10T17:37:12.787Z,3.40
2023-04-10T17:40:14.246Z,3.55
2023-04-10T17:43:15.688Z,3.60
2023-04-10T17:46:17.495Z,3.70
2023-04-10T17:49:19.546Z,3.30
2023-04-10T17:52:21.145Z,3.60
2023-04-10T17:55:22.623Z,3.42
2023-04-10T17:58:24.080Z,2.95
2023-04-10T18:01:29.495Z,3.30
2023-04-10T18:04:31.305Z,3.28
2023-04-10T18:07:32.799Z,3.05
2023-04-10T18:11:22.724Z,3.30
2023-04-10T18:14:24.218Z,3.53
2023-04-10T18:17:26.109Z,3.83
2023-04-10T18:20:27.653Z,3.00
2023-04-10T18:23:33.124Z,3.10
2023-04-10T18:26:34.894Z,3.33
2023-04-10T18:29:36.354Z,3.10
2023-04-10T18:32:38.154Z,3.47
2023-04-10T18:35:39.736Z,3.05
2023-04-10T18:38:43.710Z,2.92
2023-04-10T18:41:45.214Z,3.40
2023-04-10T18:44:46.745Z,3.08
2023-04-10T18:47:48.309Z,3.20
2023-04-10T18:50:55.748Z,2.70
2023-04-10T18:53:58.706Z,3.08
2023-04-10T18:57:00.890Z,3.00
2023-04-10T19:00:04.408Z,3.08
2023-04-10T19:03:06.047Z,2.80
2023-04-10T19:06:08.479Z,2.60
2023-04-10T19:09:10.009Z,2.50
2023-04-10T19:12:11.477Z,2.80
2023-04-10T19:15:13.284Z,2.60
2023-04-10T19:18:16.411Z,2.60
2023-04-10T19:21:18.196Z,2.80
2023-04-10T19:24:19.826Z,3.33
2023-04-10T19:27:21.391Z,2.67
2023-04-10T19:30:23.020Z,2.90
2023-04-10T19:33:25.297Z,2.70
2023-04-10T19:36:27.407Z,2.40
2023-04-10T19:39:28.978Z,2.40
2023-04-10T19:42:30.489Z,2.40
2023-04-10T19:45:32.999Z,2.35
2023-04-10T19:48:34.512Z,2.20
2023-04-10T19:51:36.155Z,2.08
2023-04-10T19:54:37.668Z,2.50
2023-04-10T19:57:39.910Z,2.05
2023-04-10T20:00:41.438Z,2.28
2023-04-10T20:03:43.102Z,2.05
2023-04-10T20:06:44.880Z,1.95
2023-04-10T20:09:46.395Z,2.10
2023-04-10T20:12:47.885Z,2.55
2023-04-10T20:15:49.569Z,2.30
2023-04-10T20:18:54.282Z,2.30
2023-04-10T20:21:56.069Z,2.38
2023-04-10T20:24:57.575Z,2.22
2023-04-10T20:27:59.225Z,2.15
2023-04-10T20:31:01.169Z,2.10
2023-04-10T20:34:05.721Z,2.03
2023-04-10T20:37:07.246Z,1.90
2023-04-10T20:40:09.343Z,1.90
2023-04-10T20:43:12.099Z,1.70
2023-04-10T20:46:13.699Z,2.22
2023-04-10T20:49:15.854Z,2.50
2023-04-10T20:52:17.358Z,2.30
2023-04-10T20:55:18.853Z,2.00
2023-04-10T20:58:20.729Z,2.00
2023-04-10T21:01:22.288Z,1.80
2023-04-10T21:04:23.859Z,2.00
2023-04-10T21:07:25.501Z,1.70
2023-04-10T21:10:26.976Z,1.80
2023-04-10T21:13:28.452Z,2.00
2023-04-10T21:16:31.128Z,2.17
2023-04-10T21:19:32.699Z,2.50
2023-04-10T21:22:34.181Z,2.92
2023-04-10T21:25:36.197Z,2.85
2023-04-10T21:28:37.766Z,3.00
2023-04-10T21:31:39.328Z,2.75
2023-04-10T21:34:40.882Z,2.67
2023-04-10T21:37:42.342Z,3.08
2023-04-10T21:40:50.984Z,2.78
2023-04-10T21:43:56.327Z,2.55
2023-04-10T21:46:57.961Z,2.97
2023-04-10T21:49:59.588Z,2.50
2023-04-10T21:53:01.077Z,2.60
2023-04-10T21:56:05.321Z,2.85
2023-04-10T21:59:07.171Z,3.00
2023-04-10T22:02:10.581Z,2.33
2023-04-10T22:05:14.012Z,2.28
2023-04-10T22:08:18.107Z,2.30
2023-04-10T22:11:19.577Z,2.30
2023-04-10T22:14:21.550Z,2.53
2023-04-10T22:17:23.716Z,2.50
2023-04-10T22:20:25.228Z,2.53
2023-04-10T22:23:26.785Z,2.42
2023-04-10T22:26:28.251Z,2.63
2023-04-10T22:29:29.776Z,2.47
2023-04-10T22:32:32.732Z,2.20
2023-04-10T22:35:34.301Z,2.13
2023-04-10T22:38:35.795Z,2.20
2023-04-10T22:41:40.002Z,2.15
2023-04-10T22:44:41.528Z,2.30
2023-04-10T22:47:42.995Z,1.90
2023-04-10T22:50:44.466Z,1.98
2023-04-10T22:53:45.987Z,1.85
2023-04-10T22:56:48.737Z,2.03
2023-04-10T22:59:50.424Z,2.25
2023-04-10T23:02:51.953Z,1.90
2023-04-10T23:05:53.474Z,1.90
2023-04-10T23:08:55.121Z,2.05
2023-04-10T23:11:56.870Z,1.92
2023-04-10T23:14:58.329Z,1.90
2023-04-10T23:18:00.130Z,1.80
2023-04-10T23:21:05.512Z,1.80
2023-04-10T23:24:07.168Z,1.83
2023-04-10T23:27:08.614Z,1.58
2023-04-10T23:30:10.367Z,1.80
2023-04-10T23:33:11.797Z,1.58
2023-04-10T23:36:13.374Z,1.70
2023-04-10T23:39:15.436Z,1.67
2023-04-10T23:42:16.932Z,1.60
2023-04-10T23:45:18.385Z,1.58
2023-04-10T23:48:19.884Z,1.90
2023-04-10T23:51:21.293Z,2.10
2023-04-10T23:54:22.756Z,1.90
2023-04-10T23:57:24.215Z,2.10
